EST,Max TemperatureF,Mean TemperatureF,Min TemperatureF,Max Dew PointF,MeanDew PointF,Min DewpointF,Max Humidity, Mean Humidity, Min Humidity, Max Sea Level PressureIn, Mean Sea Level PressureIn, Min Sea Level PressureIn, Max VisibilityMiles, Mean VisibilityMiles, Min VisibilityMiles, Max Wind SpeedMPH, Mean Wind SpeedMPH, Max Gust SpeedMPH,PrecipitationIn, CloudCover, Events, WindDirDegrees
2013-1-1,80,68,55,62,58,55,93,73,48,30.21,30.12,30.05,10,10,7,17,4,23,0.00,2,,174
2013-1-2,80,70,59,67,63,57,100,86,62,30.09,30.05,30.00,10,8,0,13,3,15,0.00,3,Fog,209
2013-1-3,82,72,61,68,64,59,100,84,49,30.14,30.08,30.03,10,7,0,17,4,21,0.00,2,Fog,172
2013-1-4,72,68,63,68,65,61,97,89,79,30.26,30.18,30.11,10,9,2,13,7,15,0.15,8,Rain,45
2013-1-5,80,71,62,65,62,59,100,84,58,30.27,30.22,30.17,10,8,1,13,7,16,0.00,6,,67
2013-1-6,82,74,65,70,67,64,100,90,58,30.18,30.13,30.06,10,6,0,12,5,16,0.00,6,Fog,82
2013-1-7,77,72,66,68,66,63,97,88,69,30.18,30.12,30.08,10,8,1,14,7,31,0.31,6,Rain,57
2013-1-8,85,75,64,70,66,63,100,85,48,30.20,30.14,30.10,10,8,0,17,7,23,0.00,4,Fog,79
2013-1-9,88,79,70,70,67,60,100,77,42,30.27,30.21,30.16,10,9,6,17,9,23,0.00,3,,107
2013-1-10,85,76,67,68,63,58,97,71,43,30.28,30.24,30.18,10,10,7,22,9,30,0.00,2,,106
2013-1-11,85,74,62,66,63,57,100,74,43,30.26,30.19,30.13,10,10,7,15,6,20,0.00,1,,102
2013-1-12,85,76,67,68,65,62,93,74,48,30.18,30.13,30.07,10,10,10,15,7,18,0.00,2,,113
2013-1-13,84,74,64,66,64,61,93,75,47,30.14,30.10,30.06,10,10,10,14,5,17,0.00,2,,132
2013-1-14,82,72,62,63,61,59,100,74,49,30.19,30.15,30.12,10,10,10,14,4,17,0.00,2,,132
2013-1-15,84,72,60,65,62,59,100,73,47,30.14,30.10,30.06,10,10,6,13,3,15,0.00,3,,149
2013-1-16,83,72,61,67,62,56,100,75,40,30.11,30.06,30.01,10,9,6,13,4,18,0.00,1,,176
2013-1-17,81,71,60,68,60,49,93,79,60,30.14,30.06,30.00,10,9,4,25,10,31,T,4,Rain,304
2013-1-18,68,57,45,57,46,35,90,65,48,30.30,30.21,30.14,10,10,10,20,10,24,0.00,5,,31
2013-1-19,77,68,59,63,61,57,97,80,56,30.24,30.17,30.11,10,10,10,14,8,18,0.00,7,,55
2013-1-20,79,72,64,65,63,62,93,82,58,30.17,30.10,30.04,10,10,9,12,5,14,0.00,6,,49
2013-1-21,77,70,62,64,62,59,93,82,69,30.10,30.06,30.01,10,10,10,15,6,18,0.00,5,,316
2013-1-22,72,65,57,56,48,39,90,61,44,30.27,30.16,30.06,10,10,10,17,10,23,0.00,1,,19
2013-1-23,75,65,54,46,40,35,61,46,27,30.34,30.28,30.25,10,10,10,17,8,21,0.00,0,,41
2013-1-24,76,63,49,52,44,33,86,58,21,30.33,30.28,30.23,10,10,10,14,4,17,0.00,0,,29
2013-1-25,77,64,50,51,49,47,89,63,36,30.31,30.25,30.20,10,10,6,10,3,13,0.00,0,,19
2013-1-26,79,65,51,54,48,42,83,60,28,30.28,30.23,30.17,10,10,8,12,4,15,0.00,0,,16
2013-1-27,81,68,54,59,53,49,93,64,33,30.29,30.25,30.21,10,10,9,15,7,20,0.00,3,,72
2013-1-28,83,73,63,61,59,56,90,65,45,30.31,30.26,30.20,10,10,9,17,7,23,0.00,1,,104
2013-1-29,86,74,62,67,63,60,100,76,44,30.23,30.17,30.10,10,10,5,17,6,23,0.00,2,,143
2013-1-30,84,75,66,67,64,63,93,74,51,30.11,30.02,29.97,10,10,10,21,9,29,0.00,1,,168
2013-1-31,73,62,50,69,54,32,93,73,31,30.23,30.09,29.94,10,9,3,24,10,30,0.16,5,Rain,351